createdAt,value
2023-05-30T00:02:05.828Z,61.18
2023-05-30T00:04:32.340Z,62.02
2023-05-30T00:06:58.969Z,62.28
2023-05-30T00:09:25.433Z,62.89
2023-05-30T00:11:55.659Z,62.10
2023-05-30T00:14:22.335Z,62.86
2023-05-30T00:16:49.049Z,61.82
2023-05-30T00:19:16.076Z,62.07
2023-05-30T00:21:42.588Z,62.29
2023-05-30T00:24:09.111Z,62.02
2023-05-30T00:26:35.589Z,63.56
2023-05-30T00:29:02.218Z,63.77
2023-05-30T00:31:30.646Z,63.27
2023-05-30T00:33:57.459Z,64.11
2023-05-30T00:36:24.210Z,63.62
2023-05-30T00:38:50.806Z,64.58
2023-05-30T00:41:18.101Z,64.17
2023-05-30T00:43:45.043Z,64.40
2023-05-30T00:46:13.057Z,64.62
2023-05-30T00:48:39.739Z,65.94
2023-05-30T00:51:08.219Z,64.98
2023-05-30T00:53:34.886Z,65.60
2023-05-30T00:56:02.105Z,65.54
2023-05-30T00:58:28.914Z,65.42
2023-05-30T01:00:55.508Z,65.88
2023-05-30T01:03:25.865Z,66.62
2023-05-30T01:05:52.893Z,66.50
2023-05-30T01:08:19.753Z,66.48
2023-05-30T01:10:48.675Z,66.80
2023-05-30T01:13:36.627Z,67.45
2023-05-30T01:16:09.284Z,68.18
2023-05-30T01:18:41.186Z,67.84
2023-05-30T01:21:12.056Z,67.86
2023-05-30T01:24:24.373Z,67.22
2023-05-30T01:27:19.193Z,67.37
2023-05-30T01:29:45.909Z,66.70
2023-05-30T01:32:12.606Z,67.29
2023-05-30T01:34:39.311Z,67.96
2023-05-30T01:37:06.584Z,67.90
2023-05-30T01:39:33.346Z,68.84
2023-05-30T01:42:03.482Z,69.30
2023-05-30T01:44:51.591Z,69.41
2023-05-30T01:47:41.902Z,69.31
2023-05-30T01:50:17.719Z,69.37
2023-05-30T01:52:59.207Z,71.37
2023-05-30T01:55:26.712Z,71.93
2023-05-30T01:57:54.489Z,71.64
2023-05-30T02:00:22.049Z,72.87
2023-05-30T02:02:48.914Z,72.07
2023-05-30T02:05:15.615Z,72.98
2023-05-30T02:07:42.271Z,72.84
2023-05-30T02:10:09.414Z,73.60
2023-05-30T02:12:36.459Z,73.16
2023-05-30T02:15:04.881Z,73.61
2023-05-30T02:17:31.521Z,74.19
2023-05-30T02:20:00.182Z,74.38
2023-05-30T02:22:27.016Z,74.40
2023-05-30T02:24:56.565Z,75.08
2023-05-30T02:27:23.263Z,76.40
2023-05-30T02:29:49.979Z,76.54
2023-05-30T02:32:17.975Z,76.17
2023-05-30T02:34:44.600Z,77.02
2023-05-30T02:37:11.871Z,77.45
2023-05-30T02:39:38.515Z,78.00
2023-05-30T02:42:07.017Z,78.21
2023-05-30T02:44:33.514Z,78.42
2023-05-30T02:47:00.086Z,78.65
2023-05-30T02:49:28.496Z,78.31
2023-05-30T02:51:55.061Z,78.00
2023-05-30T02:54:21.631Z,78.89
2023-05-30T02:56:48.201Z,78.90
2023-05-30T02:59:14.778Z,79.53
2023-05-30T03:01:41.428Z,79.91
2023-05-30T03:04:08.110Z,79.45
2023-05-30T03:06:37.128Z,80.01
2023-05-30T03:09:04.823Z,79.91
2023-05-30T03:11:31.454Z,80.23
2023-05-30T03:13:58.103Z,80.05
2023-05-30T03:16:24.805Z,80.27
2023-05-30T03:18:51.801Z,80.62
2023-05-30T03:21:18.543Z,80.61
2023-05-30T03:23:45.528Z,80.84
2023-05-30T03:26:12.034Z,81.46
2023-05-30T03:28:38.706Z,80.93
2023-05-30T03:31:05.200Z,80.95
2023-05-30T03:33:32.091Z,80.64
2023-05-30T03:35:58.573Z,79.98
2023-05-30T03:38:25.164Z,80.21
2023-05-30T03:40:51.848Z,79.85
2023-05-30T03:43:18.350Z,79.80
2023-05-30T03:45:45.054Z,79.17
2023-05-30T03:48:11.805Z,78.86
2023-05-30T03:50:38.412Z,78.80
2023-05-30T03:53:04.898Z,78.88
2023-05-30T03:55:32.084Z,79.06
2023-05-30T03:57:58.618Z,78.78
2023-05-30T04:00:25.090Z,78.11
2023-05-30T04:02:52.327Z,77.70
2023-05-30T04:05:19.681Z,77.78
2023-05-30T04:07:46.361Z,77.51
2023-05-30T04:10:12.891Z,77.76
2023-05-30T04:12:39.489Z,78.21
2023-05-30T04:15:06.710Z,77.21
2023-05-30T04:17:34.058Z,75.92
2023-05-30T04:20:00.563Z,76.58
2023-05-30T04:22:27.166Z,74.90
2023-05-30T04:24:53.875Z,74.08
2023-05-30T04:27:20.623Z,74.13
2023-05-30T04:29:49.905Z,73.74
2023-05-30T04:32:17.533Z,72.67
2023-05-30T04:34:45.093Z,72.07
2023-05-30T04:37:13.103Z,70.48
2023-05-30T04:39:39.822Z,69.25
2023-05-30T04:42:06.941Z,68.61
2023-05-30T04:44:39.127Z,68.00
2023-05-30T04:47:09.455Z,66.69
2023-05-30T04:49:42.783Z,65.62
2023-05-30T04:52:09.317Z,64.96
2023-05-30T04:54:35.998Z,63.78
2023-05-30T04:57:03.612Z,64.90
2023-05-30T04:59:30.300Z,64.86
2023-05-30T05:01:58.314Z,67.17
2023-05-30T05:04:24.937Z,67.10
2023-05-30T05:06:51.935Z,67.08
2023-05-30T05:09:18.458Z,65.62
2023-05-30T05:11:45.110Z,66.31
2023-05-30T05:14:11.676Z,67.10
2023-05-30T05:16:38.297Z,66.06
2023-05-30T05:19:04.818Z,64.42
2023-05-30T05:21:31.268Z,64.27
2023-05-30T05:23:58.045Z,63.88
2023-05-30T05:26:26.027Z,64.27
2023-05-30T05:28:52.478Z,59.83
2023-05-30T05:31:19.037Z,58.94
2023-05-30T05:33:45.646Z,57.30
2023-05-30T05:36:12.145Z,52.24
2023-05-30T05:38:39.242Z,48.73
2023-05-30T05:41:05.940Z,46.90
2023-05-30T05:43:32.629Z,44.96
2023-05-30T05:45:59.193Z,43.04
2023-05-30T05:48:26.508Z,44.81
2023-05-30T05:50:53.252Z,44.46
2023-05-30T05:53:20.065Z,45.50
2023-05-30T05:55:46.916Z,45.48
2023-05-30T05:58:14.036Z,44.79
2023-05-30T06:00:41.062Z,42.01
2023-05-30T06:03:09.209Z,41.70
2023-05-30T06:05:36.263Z,42.34
2023-05-30T06:08:03.073Z,43.12
2023-05-30T06:10:29.746Z,42.86
2023-05-30T06:12:56.589Z,41.85
2023-05-30T06:15:23.138Z,40.31
2023-05-30T06:17:49.742Z,37.48
2023-05-30T06:20:16.438Z,35.73
2023-05-30T06:22:43.224Z,35.11
2023-05-30T06:25:09.843Z,32.17
2023-05-30T06:27:36.920Z,30.07
2023-05-30T06:30:03.725Z,29.48
2023-05-30T06:32:33.248Z,29.14
2023-05-30T06:34:59.857Z,28.84
2023-05-30T06:37:26.541Z,25.74
2023-05-30T06:39:53.173Z,26.68
2023-05-30T06:42:21.425Z,24.33
2023-05-30T06:44:47.896Z,25.62
2023-05-30T06:47:14.423Z,24.83
2023-05-30T06:49:41.044Z,24.57
2023-05-30T06:52:07.541Z,25.70
2023-05-30T06:54:34.460Z,24.70
2023-05-30T06:57:04.067Z,23.55
2023-05-30T06:59:31.832Z,24.51
2023-05-30T07:01:58.324Z,25.15
2023-05-30T07:04:25.573Z,23.94
2023-05-30T07:06:52.324Z,22.22
2023-05-30T07:09:18.893Z,20.82
2023-05-30T07:11:45.817Z,22.89
2023-05-30T07:14:12.400Z,22.51
2023-05-30T07:16:39.393Z,21.72
2023-05-30T07:21:38.118Z,20.91
2023-05-30T07:24:04.703Z,20.21
2023-05-30T07:26:31.209Z,21.21
2023-05-30T07:28:58.352Z,19.73
2023-05-30T07:31:24.843Z,21.12
2023-05-30T07:33:51.460Z,20.87
2023-05-30T07:36:19.234Z,20.60
2023-05-30T07:38:45.666Z,21.85
2023-05-30T07:41:12.237Z,20.81
2023-05-30T07:43:38.811Z,20.69
2023-05-30T07:46:05.542Z,20.46
2023-05-30T07:48:32.436Z,18.20
2023-05-30T07:50:59.214Z,20.76
2023-05-30T07:53:26.128Z,20.07
2023-05-30T07:55:52.702Z,20.36
2023-05-30T07:58:19.146Z,20.01
2023-05-30T08:00:45.649Z,20.03
2023-05-30T08:03:12.307Z,21.78
2023-05-30T08:05:39.164Z,20.54
2023-05-30T08:08:08.162Z,20.02
2023-05-30T08:10:34.786Z,18.72
2023-05-30T08:13:01.657Z,19.46
2023-05-30T08:15:28.270Z,18.57
2023-05-30T08:17:57.820Z,18.89
2023-05-30T08:20:25.370Z,19.82
2023-05-30T08:22:53.084Z,19.04
2023-05-30T08:25:24.961Z,19.07
2023-05-30T08:27:54.003Z,16.91
2023-05-30T08:30:21.101Z,18.06
2023-05-30T08:32:47.688Z,17.66
2023-05-30T08:35:15.179Z,19.00
2023-05-30T08:37:42.263Z,18.54
2023-05-30T08:40:15.907Z,18.97
2023-05-30T08:42:42.843Z,18.57
2023-05-30T08:45:09.887Z,18.43
2023-05-30T08:47:36.914Z,18.53
2023-05-30T08:50:05.243Z,18.64
2023-05-30T08:52:32.626Z,19.90
2023-05-30T08:55:31.680Z,18.53
2023-05-30T08:58:20.237Z,18.24
2023-05-30T09:00:49.527Z,17.65
2023-05-30T09:03:17.122Z,17.97
2023-05-30T09:05:43.894Z,17.12
2023-05-30T09:08:11.169Z,17.42
2023-05-30T09:10:38.216Z,17.75
2023-05-30T09:13:04.715Z,18.26
2023-05-30T09:15:31.318Z,17.43
2023-05-30T09:17:57.974Z,19.41
2023-05-30T09:20:26.406Z,17.86
2023-05-30T09:22:52.889Z,17.54
2023-05-30T09:25:19.713Z,16.74
2023-05-30T09:27:53.308Z,19.13
2023-05-30T09:30:20.432Z,19.22
2023-05-30T09:33:03.445Z,18.71
2023-05-30T09:35:30.747Z,19.57
2023-05-30T09:37:57.577Z,19.03
2023-05-30T09:40:24.857Z,18.30
2023-05-30T09:42:53.676Z,19.24
2023-05-30T09:45:25.430Z,19.02
2023-05-30T09:47:53.689Z,19.35
2023-05-30T09:50:22.311Z,18.68
2023-05-30T09:52:53.678Z,18.47
2023-05-30T09:55:20.632Z,17.47
2023-05-30T09:57:49.100Z,18.45
2023-05-30T10:00:18.503Z,18.29
2023-05-30T10:02:54.834Z,17.58
2023-05-30T10:05:29.285Z,18.78
2023-05-30T10:07:57.442Z,18.31
2023-05-30T10:10:24.779Z,16.81
2023-05-30T10:12:53.741Z,18.46
2023-05-30T10:15:24.521Z,17.92
2023-05-30T10:18:06.899Z,18.50
2023-05-30T10:20:42.362Z,17.97
2023-05-30T10:23:09.387Z,18.99
2023-05-30T10:25:40.458Z,17.55
2023-05-30T10:28:07.872Z,16.87
2023-05-30T10:30:34.963Z,17.53
2023-05-30T10:33:12.430Z,17.81
2023-05-30T10:35:39.859Z,18.45
2023-05-30T10:38:12.458Z,17.76
2023-05-30T10:41:01.522Z,17.01
2023-05-30T10:43:46.922Z,17.14
2023-05-30T10:46:25.282Z,17.19
2023-05-30T10:48:54.784Z,17.83
2023-05-30T10:51:21.771Z,18.69
2023-05-30T10:53:49.202Z,18.90
2023-05-30T10:56:41.777Z,18.21
2023-05-30T10:59:12.896Z,18.22
2023-05-30T11:01:39.959Z,18.36
2023-05-30T11:04:08.617Z,17.62
2023-05-30T11:06:36.974Z,16.97
2023-05-30T11:09:15.424Z,16.17
2023-05-30T11:11:45.971Z,17.13
2023-05-30T11:14:13.775Z,16.72
2023-05-30T11:16:58.631Z,17.53
2023-05-30T11:19:26.568Z,19.06
2023-05-30T11:22:03.927Z,18.40
2023-05-30T11:24:31.986Z,18.66
2023-05-30T11:27:00.667Z,17.20
2023-05-30T11:29:34.915Z,19.55
2023-05-30T11:32:02.792Z,19.37
2023-05-30T11:34:29.463Z,20.42
2023-05-30T11:36:56.746Z,18.91
2023-05-30T11:39:23.631Z,19.42
2023-05-30T11:41:50.299Z,18.43
2023-05-30T11:44:17.452Z,20.11
2023-05-30T11:46:44.120Z,19.47
2023-05-30T11:49:11.088Z,19.70
2023-05-30T11:51:40.613Z,19.32
2023-05-30T11:54:09.135Z,18.19
2023-05-30T11:56:35.757Z,19.91
2023-05-30T11:59:02.566Z,19.00
2023-05-30T12:01:29.092Z,21.15
2023-05-30T12:03:55.764Z,20.98
2023-05-30T12:06:23.204Z,20.57
2023-05-30T12:08:49.983Z,21.22
2023-05-30T12:11:17.153Z,21.39
2023-05-30T12:13:43.974Z,21.35
2023-05-30T12:16:13.967Z,21.19
2023-05-30T12:18:41.272Z,20.65
2023-05-30T12:21:12.506Z,22.22
2023-05-30T12:23:44.131Z,21.62
2023-05-30T12:26:18.053Z,21.17
2023-05-30T12:28:46.738Z,20.85
2023-05-30T12:31:23.927Z,21.22
2023-05-30T12:33:51.655Z,22.25
2023-05-30T12:36:29.460Z,21.94
2023-05-30T12:38:57.946Z,22.20
2023-05-30T12:41:31.537Z,21.73
2023-05-30T12:43:59.391Z,20.95
2023-05-30T12:46:29.317Z,22.29
2023-05-30T12:48:55.959Z,22.00
2023-05-30T12:51:22.698Z,21.40
2023-05-30T12:53:54.194Z,22.04
2023-05-30T12:56:21.081Z,21.75
2023-05-30T12:58:47.514Z,22.42
2023-05-30T13:01:14.655Z,22.12
2023-05-30T13:03:41.279Z,22.41
2023-05-30T13:06:08.329Z,22.49
2023-05-30T13:08:34.961Z,21.43
2023-05-30T13:11:04.337Z,21.48
2023-05-30T13:13:32.641Z,21.37
2023-05-30T13:15:59.123Z,21.82
2023-05-30T13:18:25.739Z,21.05
2023-05-30T13:20:52.433Z,21.76
2023-05-30T13:23:19.064Z,21.59
2023-05-30T13:25:45.746Z,20.93
2023-05-30T13:28:12.600Z,23.60
2023-05-30T13:30:39.633Z,22.40
2023-05-30T13:33:06.439Z,24.62
2023-05-30T13:35:33.399Z,22.35
2023-05-30T13:38:00.292Z,22.36
2023-05-30T13:40:26.846Z,22.12
2023-05-30T13:42:53.426Z,21.43
2023-05-30T13:45:21.674Z,21.95
2023-05-30T13:47:48.666Z,22.81
2023-05-30T13:50:15.510Z,22.19
2023-05-30T13:52:42.010Z,22.55
2023-05-30T13:55:09.000Z,22.11
2023-05-30T13:57:35.924Z,23.50
2023-05-30T14:00:02.544Z,21.54
2023-05-30T14:02:29.058Z,21.88
2023-05-30T14:04:55.599Z,23.41
2023-05-30T14:07:22.390Z,22.49
2023-05-30T14:09:48.840Z,22.08
2023-05-30T14:12:15.541Z,21.61
2023-05-30T14:14:42.449Z,21.81
2023-05-30T14:17:09.475Z,23.29
2023-05-30T14:19:36.083Z,22.48
2023-05-30T14:22:05.759Z,21.16
2023-05-30T14:24:32.204Z,21.84
2023-05-30T14:26:59.449Z,22.03
2023-05-30T14:29:26.389Z,21.21
2023-05-30T14:31:52.970Z,21.56
2023-05-30T14:34:19.447Z,20.98
2023-05-30T14:36:46.652Z,21.24
2023-05-30T14:39:13.121Z,21.32
2023-05-30T14:41:39.677Z,21.16
2023-05-30T14:44:06.377Z,20.47
2023-05-30T14:46:32.904Z,20.32
2023-05-30T14:48:59.333Z,22.87
2023-05-30T14:51:25.805Z,21.13
2023-05-30T14:53:52.744Z,21.41
2023-05-30T14:56:19.282Z,21.02
2023-05-30T14:58:46.043Z,21.92
2023-05-30T15:01:31.548Z,23.06
2023-05-30T15:04:01.220Z,21.63
2023-05-30T15:06:27.864Z,21.32
2023-05-30T15:08:54.955Z,22.27
2023-05-30T15:11:23.124Z,21.99
2023-05-30T15:13:49.872Z,21.71
2023-05-30T15:16:16.548Z,22.32
2023-05-30T15:18:43.103Z,22.03
2023-05-30T15:21:09.617Z,22.10
2023-05-30T15:23:36.145Z,22.44
2023-05-30T15:26:02.838Z,22.49
2023-05-30T15:28:29.431Z,21.39
2023-05-30T15:30:58.933Z,22.36
2023-05-30T15:33:26.447Z,21.06
2023-05-30T15:35:53.743Z,21.25
2023-05-30T15:38:20.322Z,22.32
2023-05-30T15:40:47.077Z,22.47
2023-05-30T15:43:13.931Z,22.45
2023-05-30T15:45:40.574Z,21.81
2023-05-30T15:48:07.213Z,21.40
2023-05-30T15:50:33.900Z,22.25
2023-05-30T15:53:00.529Z,23.10
2023-05-30T15:55:27.555Z,22.88
2023-05-30T15:57:54.349Z,21.92
2023-05-30T16:00:21.177Z,22.66
2023-05-30T16:02:47.738Z,22.69
2023-05-30T16:05:14.278Z,23.10
2023-05-30T16:07:40.879Z,23.88
2023-05-30T16:10:08.084Z,22.53
2023-05-30T16:12:34.648Z,22.60
2023-05-30T16:15:01.722Z,22.99
2023-05-30T16:17:29.840Z,23.63
2023-05-30T16:19:56.603Z,22.90
2023-05-30T16:22:23.252Z,22.63
2023-05-30T16:24:50.218Z,23.34
2023-05-30T16:27:17.090Z,23.37
2023-05-30T16:29:43.524Z,23.26
2023-05-30T16:32:09.993Z,23.27
2023-05-30T16:34:36.459Z,23.22
2023-05-30T16:37:03.152Z,24.14
2023-05-30T16:39:29.946Z,23.97
2023-05-30T16:41:56.685Z,23.17
2023-05-30T16:44:23.320Z,23.93
2023-05-30T16:46:49.865Z,24.33
2023-05-30T16:49:16.383Z,25.12
2023-05-30T16:51:42.936Z,24.40
2023-05-30T16:54:10.942Z,24.04
2023-05-30T16:56:37.748Z,25.43
2023-05-30T16:59:04.497Z,24.27
2023-05-30T17:01:31.145Z,23.87
2023-05-30T17:03:57.817Z,24.17
2023-05-30T17:06:24.713Z,24.85
2023-05-30T17:08:51.184Z,24.71
2023-05-30T17:11:17.762Z,25.25
2023-05-30T17:13:44.298Z,26.46
2023-05-30T17:16:11.522Z,27.07
2023-05-30T17:18:38.311Z,26.75
2023-05-30T17:21:05.099Z,27.62
2023-05-30T17:23:32.997Z,26.45
2023-05-30T17:26:03.215Z,28.66
2023-05-30T17:28:30.798Z,27.57
2023-05-30T17:30:58.830Z,28.14
2023-05-30T17:33:25.778Z,30.11
2023-05-30T17:35:52.648Z,29.11
2023-05-30T17:38:19.313Z,27.51
2023-05-30T17:40:45.987Z,28.17
2023-05-30T17:43:12.979Z,28.07
2023-05-30T17:45:39.480Z,29.08
2023-05-30T17:48:11.571Z,28.65
2023-05-30T17:50:39.064Z,30.51
2023-05-30T17:53:05.670Z,29.87
2023-05-30T17:55:32.448Z,29.86
2023-05-30T17:57:59.197Z,29.54
2023-05-30T18:00:27.760Z,30.11
2023-05-30T18:02:54.872Z,30.89
2023-05-30T18:05:23.414Z,32.51
2023-05-30T18:07:51.327Z,33.04
2023-05-30T18:10:18.124Z,31.51
2023-05-30T18:12:44.669Z,32.16
2023-05-30T18:15:11.886Z,32.04
2023-05-30T18:17:38.870Z,30.85
2023-05-30T18:20:06.495Z,30.73
2023-05-30T18:22:33.785Z,31.34
2023-05-30T18:25:00.858Z,33.41
2023-05-30T18:27:28.126Z,31.53
2023-05-30T18:29:55.518Z,33.27
2023-05-30T18:32:22.678Z,33.72
2023-05-30T18:34:50.509Z,33.92
2023-05-30T18:37:17.211Z,35.00
2023-05-30T18:39:43.997Z,32.69
2023-05-30T18:42:10.864Z,37.39
2023-05-30T18:44:37.638Z,34.88
2023-05-30T18:47:04.765Z,35.92
2023-05-30T18:49:31.573Z,34.85
2023-05-30T18:51:58.327Z,35.65
2023-05-30T18:54:24.838Z,36.71
2023-05-30T18:56:52.618Z,35.76
2023-05-30T18:59:19.248Z,36.06
2023-05-30T19:01:46.031Z,37.38
2023-05-30T19:04:12.916Z,38.95
2023-05-30T19:06:39.547Z,40.62
2023-05-30T19:09:06.528Z,41.82
2023-05-30T19:11:33.297Z,40.46
2023-05-30T19:14:01.389Z,39.98
2023-05-30T19:16:27.996Z,40.97
2023-05-30T19:18:55.024Z,40.32
2023-05-30T19:21:21.718Z,40.66
2023-05-30T19:23:48.231Z,41.18
2023-05-30T19:26:17.004Z,41.04
2023-05-30T19:28:46.303Z,41.28
2023-05-30T19:31:15.414Z,42.52
2023-05-30T19:33:43.099Z,43.14
2023-05-30T19:36:10.308Z,41.46
2023-05-30T19:38:37.182Z,42.00
2023-05-30T19:41:03.996Z,42.22
2023-05-30T19:43:30.641Z,43.49
2023-05-30T19:45:57.091Z,43.31
2023-05-30T19:48:24.333Z,43.18
2023-05-30T19:50:51.061Z,43.13
2023-05-30T19:53:17.577Z,42.60
2023-05-30T19:55:44.129Z,42.93
2023-05-30T19:58:10.606Z,43.53
2023-05-30T20:00:41.762Z,44.05
2023-05-30T20:03:09.792Z,43.99
2023-05-30T20:05:39.374Z,44.36
2023-05-30T20:08:06.393Z,44.04
2023-05-30T20:10:33.855Z,44.79
2023-05-30T20:13:00.427Z,44.44
2023-05-30T20:15:27.364Z,44.08
2023-05-30T20:18:00.074Z,42.71
2023-05-30T20:20:27.052Z,43.73
2023-05-30T20:22:53.723Z,43.92
2023-05-30T20:25:22.095Z,44.60
2023-05-30T20:27:49.454Z,45.09
2023-05-30T20:30:16.969Z,44.15
2023-05-30T20:32:44.266Z,43.83
2023-05-30T20:35:11.350Z,43.89
2023-05-30T20:37:38.406Z,44.24
2023-05-30T20:40:05.558Z,44.45
2023-05-30T20:42:32.675Z,44.05
2023-05-30T20:44:59.420Z,44.75
2023-05-30T20:47:27.505Z,45.69
2023-05-30T20:49:54.069Z,44.73
2023-05-30T20:52:20.865Z,44.21
2023-05-30T20:54:47.381Z,44.66
2023-05-30T20:57:18.512Z,44.68
2023-05-30T20:59:45.475Z,45.49
2023-05-30T21:02:13.020Z,44.46
2023-05-30T21:04:39.847Z,45.01
2023-05-30T21:07:06.408Z,45.22
2023-05-30T21:09:33.173Z,44.38
2023-05-30T21:11:59.881Z,45.36
2023-05-30T21:14:26.564Z,45.21
2023-05-30T21:16:53.407Z,45.37
2023-05-30T21:19:19.976Z,45.57
2023-05-30T21:21:46.650Z,45.91
2023-05-30T21:24:13.282Z,46.54
2023-05-30T21:26:39.753Z,46.40
2023-05-30T21:29:06.314Z,45.93
2023-05-30T21:31:33.051Z,45.84
2023-05-30T21:34:00.771Z,47.46
2023-05-30T21:36:27.597Z,46.00
2023-05-30T21:38:54.048Z,46.90
2023-05-30T21:41:22.513Z,47.09
2023-05-30T21:43:49.035Z,47.56
2023-05-30T21:46:16.857Z,47.11
2023-05-30T21:48:43.912Z,47.57
2023-05-30T21:51:11.065Z,47.96
2023-05-30T21:53:37.729Z,48.57
2023-05-30T21:56:04.302Z,48.92
2023-05-30T21:58:30.854Z,48.38
2023-05-30T22:00:57.417Z,49.17
2023-05-30T22:03:25.796Z,48.86
2023-05-30T22:05:52.630Z,48.69
2023-05-30T22:08:19.179Z,49.16
2023-05-30T22:10:45.818Z,49.53
2023-05-30T22:13:12.399Z,49.28
2023-05-30T22:15:38.965Z,50.15
2023-05-30T22:18:06.022Z,49.02
2023-05-30T22:20:32.602Z,49.75
2023-05-30T22:23:01.285Z,49.51
2023-05-30T22:25:29.160Z,49.87
2023-05-30T22:27:56.472Z,50.96
2023-05-30T22:30:23.028Z,49.70
2023-05-30T22:32:49.726Z,51.48
2023-05-30T22:35:16.473Z,50.54
2023-05-30T22:37:43.206Z,51.77
2023-05-30T22:40:09.975Z,51.55
2023-05-30T22:42:37.292Z,52.01
2023-05-30T22:45:04.156Z,53.70
2023-05-30T22:47:30.643Z,53.88
2023-05-30T22:49:57.177Z,54.59
2023-05-30T22:52:23.640Z,54.44
2023-05-30T22:54:50.099Z,53.04
2023-05-30T22:57:17.020Z,53.79
2023-05-30T22:59:43.493Z,54.48
2023-05-30T23:02:10.293Z,54.19
2023-05-30T23:04:37.466Z,55.39
2023-05-30T23:07:04.222Z,56.49
2023-05-30T23:09:31.204Z,55.57
2023-05-30T23:11:57.690Z,56.47
2023-05-30T23:14:24.592Z,57.74
2023-05-30T23:16:51.219Z,57.46
2023-05-30T23:19:17.737Z,57.79
2023-05-30T23:21:47.251Z,57.89
2023-05-30T23:24:14.818Z,58.38
2023-05-30T23:26:41.507Z,58.33
2023-05-30T23:32:55.419Z,58.59
2023-05-30T23:35:23.766Z,59.22
2023-05-30T23:37:50.331Z,60.86
2023-05-30T23:40:17.103Z,61.11
2023-05-30T23:42:43.983Z,61.13
2023-05-30T23:45:10.691Z,60.73
2023-05-30T23:47:37.278Z,60.56
2023-05-30T23:50:04.176Z,61.61
2023-05-30T23:52:30.795Z,61.64
2023-05-30T23:54:57.537Z,61.74
2023-05-30T23:57:24.178Z,62.51
2023-05-30T23:59:51.345Z,63.14
